Aspen-Pitkin Co,Sardy Field Aspen US
ICAO: KASE
IATA: ASE
Category: Medium
Scheduled Services: Yes

Elevation: 7820 ft
TransAlt. 18000 ft.

Airport Communications:
ATIS:120.4
CLNC DEL:123.75
APP/DEP:123.8
CTAF:118.85
GND:121.9
TWR:118.85
UNICOM:122.95

KASE Zoom In..

Runways:

(A) RW 15 length 8006 ft width 100 ft
LOC 111.15 / hdg 151

(B) RW 33 length 8006 ft width 100 ft
LOC 111.15 / hdg 331

Location; KASE
Day. 19 / Time. 20.53 Zulu
* Altimeter: 29.96
* Temperature: 17° c. 62.6°f.
* Wind from: 170° Speed 12 kn with Gusts up to 18 kn.
Dewpoint: -15° c.
Visibility: 10 Statute Miles.
Clouds: Clear (automated report).

KASE 192053Z 17012G18KT 10SM CLR 17/M15 A2996 RMK AO2 PK WND 14027/1956 SLP045 T01721150 56028


Wind From 170°
Speed 12 kn.

  YouTube Music Video
 
jpsmedia.com for Web Design  worldairports.se 2018   terms of use